Time;durP1;ratioP1;P1;durP2;ratioP2;P2;SDS_P1;SDS_P2;PMS_P1;PMS_P2;Temp;Humidity;BMP_temperature;BMP_pressure;BME280_temperature;BME280_humidity;BME280_pressure;Samples;Min_cycle;Max_cycle;Signal;HPM_P1;HPM_P2
2023/05/17 00:01:36;;;;;;;;;7.00;7.00;;;;;-143.57;100.00;65101.44;5119756;27;45467;-41
2023/05/17 00:04:01;;;;;;;;;9.00;7.33;;;;;-143.57;100.00;65101.44;5119876;27;46406;-46
2023/05/17 00:06:27;;;;;;;;;10.00;9.00;;;;;-143.57;100.00;65101.44;5119740;27;45361;-40
2023/05/17 00:08:53;;;;;;;;;8.67;6.67;;;;;-143.57;100.00;65101.44;5119356;27;45438;-41
2023/05/17 00:11:18;;;;;;;;;7.33;4.00;;;;;-143.57;100.00;65101.44;5101419;27;45435;-40
2023/05/17 00:13:43;;;;;;;;;8.33;5.33;;;;;-143.57;100.00;65101.44;5119476;27;46857;-41
2023/05/17 00:16:09;;;;;;;;;4.67;4.67;;;;;-143.57;100.00;65101.44;5119684;27;45457;-42
2023/05/17 00:18:35;;;;;;;;;7.33;5.00;;;;;-143.57;100.00;65101.44;5119545;27;45328;-41
2023/05/17 00:21:00;;;;;;;;;6.67;6.00;;;;;-143.57;100.00;65101.44;5119646;27;45490;-40
2023/05/17 00:23:25;;;;;;;;;7.00;4.67;;;;;-143.57;100.00;65101.44;5119240;27;46980;-41
2023/05/17 00:25:51;;;;;;;;;7.00;7.00;;;;;-143.57;100.00;65101.44;5119432;27;45364;-48
2023/05/17 00:28:16;;;;;;;;;6.67;4.67;;;;;-143.57;100.00;65101.44;5119384;27;45480;-40
2023/05/17 00:30:42;;;;;;;;;8.67;4.67;;;;;-143.57;100.00;65101.44;5119752;27;45411;-47
2023/05/17 00:33:07;;;;;;;;;6.67;6.00;;;;;-143.57;100.00;65101.44;5119094;27;46080;-40
2023/05/17 00:35:32;;;;;;;;;7.33;7.00;;;;;-143.57;100.00;65101.44;5119300;27;45215;-40
2023/05/17 00:37:58;;;;;;;;;5.00;4.00;;;;;-143.57;100.00;65101.44;5119168;27;45340;-46
2023/05/17 00:40:23;;;;;;;;;6.00;3.67;;;;;-143.57;100.00;65101.44;5119422;27;45296;-49
2023/05/17 00:42:49;;;;;;;;;7.00;7.00;;;;;-143.57;100.00;65101.44;5100668;27;45990;-47
2023/05/17 00:45:14;;;;;;;;;10.67;6.00;;;;;-143.57;100.00;65101.44;5119067;27;45286;-50
2023/05/17 00:47:40;;;;;;;;;7.33;4.00;;;;;-143.57;100.00;65101.44;5119315;27;45367;-47
2023/05/17 00:50:06;;;;;;;;;4.33;4.33;;;;;-143.57;100.00;65101.44;5119167;27;45219;-45
2023/05/17 00:52:31;;;;;;;;;12.00;6.00;;;;;-143.57;100.00;65101.44;5118950;27;46131;-47
2023/05/17 00:54:57;;;;;;;;;7.33;7.00;;;;;-143.57;100.00;65101.44;5118567;27;45457;-43
2023/05/17 00:57:23;;;;;;;;;7.00;5.33;;;;;-143.57;100.00;65101.44;5119058;27;45417;-43
2023/05/17 00:59:50;;;;;;;;;7.00;7.00;;;;;-143.57;100.00;65101.44;5119153;27;45330;-48
2023/05/17 01:02:15;;;;;;;;;5.67;5.67;;;;;-143.57;100.00;65101.44;5118682;27;45348;-49
2023/05/17 01:04:40;;;;;;;;;7.00;6.67;;;;;-143.57;100.00;65101.44;5118915;27;45364;-40
2023/05/17 01:07:06;;;;;;;;;6.67;4.00;;;;;-143.57;100.00;65101.44;5118847;27;45370;-48
2023/05/17 01:09:32;;;;;;;;;6.00;4.33;;;;;-143.57;100.00;65101.44;5119037;27;45413;-44
2023/05/17 01:12:32;;;;;;;;;8.67;6.00;;;;;-143.57;100.00;65101.44;5118151;27;46563;-45
2023/05/17 01:15:14;;;;;;;;;5.33;5.33;;;;;-143.57;100.00;65101.44;5117920;27;45436;-39
2023/05/17 01:17:50;;;;;;;;;10.00;7.00;;;;;-143.57;100.00;65101.44;5118525;27;45258;-41
2023/05/17 01:20:30;;;;;;;;;6.00;6.00;;;;;-143.57;100.00;65101.44;5099983;27;45583;-46
2023/05/17 01:23:14;;;;;;;;;6.67;6.00;;;;;-143.57;100.00;65101.44;5118367;27;46101;-45
2023/05/17 01:26:04;;;;;;;;;8.00;6.33;;;;;-143.57;100.00;65101.44;5118297;27;45419;-40
2023/05/17 01:28:31;;;;;;;;;8.00;6.33;;;;;-143.57;100.00;65101.44;5118346;27;45448;-41
2023/05/17 01:31:00;;;;;;;;;6.67;4.00;;;;;-143.57;100.00;65101.44;5118670;27;45241;-42
2023/05/17 01:33:25;;;;;;;;;10.67;5.67;;;;;-143.57;100.00;65101.44;5118373;27;45386;-42
2023/05/17 01:35:51;;;;;;;;;7.67;5.00;;;;;-143.57;100.00;65101.44;5118524;27;45658;-41
2023/05/17 01:38:16;;;;;;;;;7.33;6.33;;;;;-143.57;100.00;65101.44;5118359;27;45479;-45
2023/05/17 01:41:00;;;;;;;;;7.33;4.67;;;;;-143.57;100.00;65101.44;5118615;27;45353;-46
2023/05/17 01:43:40;;;;;;;;;9.67;6.00;;;;;-143.57;100.00;65101.44;5118121;27;45486;-45
2023/05/17 01:46:25;;;;;;;;;8.67;7.00;;;;;-143.57;100.00;65101.44;5117927;27;45458;-46
2023/05/17 01:49:28;;;;;;;;;11.00;7.00;;;;;-143.57;100.00;65101.44;5118024;27;45285;-43
2023/05/17 01:52:02;;;;;;;;;9.00;7.00;;;;;-143.57;100.00;65101.44;5118322;27;45347;-44
2023/05/17 01:54:34;;;;;;;;;9.33;8.00;;;;;-143.57;100.00;65101.44;5117562;27;46290;-47
2023/05/17 01:57:04;;;;;;;;;12.67;7.33;;;;;-143.57;100.00;65101.44;5117723;27;45487;-48
2023/05/17 01:59:32;;;;;;;;;10.33;8.00;;;;;-143.57;100.00;65101.44;5118053;27;45356;-43
2023/05/17 02:02:04;;;;;;;;;11.67;8.00;;;;;-143.57;100.00;65101.44;5118156;27;45339;-41
2023/05/17 02:04:30;;;;;;;;;11.00;8.00;;;;;-143.57;100.00;65101.44;5117918;27;46121;-41
2023/05/17 02:06:55;;;;;;;;;8.00;8.00;;;;;-143.57;100.00;65101.44;5117814;27;45237;-41
2023/05/17 02:09:21;;;;;;;;;7.33;7.00;;;;;-143.57;100.00;65101.44;5118025;27;45321;-41
2023/05/17 02:11:46;;;;;;;;;8.33;8.00;;;;;-143.57;100.00;65101.44;5118168;27;45432;-43
2023/05/17 02:14:11;;;;;;;;;10.00;6.33;;;;;-143.57;100.00;65101.44;5117720;27;45384;-48
2023/05/17 02:16:37;;;;;;;;;11.33;8.67;;;;;-143.57;100.00;65101.44;5117972;27;45346;-41
2023/05/17 02:19:02;;;;;;;;;7.00;6.67;;;;;-143.57;100.00;65101.44;5118013;27;45309;-40
2023/05/17 02:21:27;;;;;;;;;11.00;8.00;;;;;-143.57;100.00;65101.44;5118059;27;45353;-41
2023/05/17 02:23:52;;;;;;;;;11.33;7.00;;;;;-143.57;100.00;65101.44;5117405;27;46078;-41
2023/05/17 02:26:18;;;;;;;;;7.00;7.00;;;;;-143.57;100.00;65101.44;5117501;27;45470;-41
2023/05/17 02:28:43;;;;;;;;;9.33;7.33;;;;;-143.57;100.00;65101.44;5117397;27;45535;-45
2023/05/17 02:31:08;;;;;;;;;11.00;9.00;;;;;-143.57;100.00;65101.44;5117707;27;45364;-41
2023/05/17 02:33:34;;;;;;;;;12.00;8.00;;;;;-143.57;100.00;65101.44;5117482;27;45320;-42
2023/05/17 02:35:59;;;;;;;;;13.67;8.00;;;;;-143.57;100.00;65101.44;5117330;27;45470;-40
2023/05/17 02:38:25;;;;;;;;;9.33;8.00;;;;;-143.57;100.00;65101.44;5117559;27;45598;-41
2023/05/17 02:40:50;;;;;;;;;13.00;8.33;;;;;-143.57;100.00;65101.44;5117598;27;45460;-47
2023/05/17 02:43:15;;;;;;;;;8.00;8.00;;;;;-143.57;100.00;65101.44;5117340;27;45953;-42
2023/05/17 02:45:42;;;;;;;;;10.33;10.33;;;;;-143.57;100.00;65101.44;5099046;27;45257;-43
2023/05/17 02:48:08;;;;;;;;;11.00;7.33;;;;;-143.57;100.00;65101.44;5117496;27;45271;-48
2023/05/17 02:50:33;;;;;;;;;14.67;8.00;;;;;-143.57;100.00;65101.44;5117413;27;45417;-44
2023/05/17 02:52:58;;;;;;;;;10.33;8.00;;;;;-143.57;100.00;65101.44;5116255;27;45277;-42
2023/05/17 02:55:24;;;;;;;;;9.00;9.00;;;;;-143.57;100.00;65101.44;5117149;27;45493;-42
2023/05/17 02:57:49;;;;;;;;;9.00;7.33;;;;;-143.57;100.00;65101.44;5117174;27;45335;-46
2023/05/17 03:00:15;;;;;;;;;8.67;7.00;;;;;-143.57;100.00;65101.44;5117438;27;45429;-45
2023/05/17 03:02:40;;;;;;;;;11.00;7.33;;;;;-143.57;100.00;65101.44;5098288;27;46137;-47
2023/05/17 03:05:07;;;;;;;;;9.00;6.00;;;;;-143.57;100.00;65101.44;5117240;27;45532;-43
2023/05/17 03:07:32;;;;;;;;;8.00;7.33;;;;;-143.57;100.00;65101.44;5117196;27;45571;-43
2023/05/17 03:09:57;;;;;;;;;13.00;9.00;;;;;-143.57;100.00;65101.44;5117202;27;45452;-47
2023/05/17 03:12:23;;;;;;;;;6.67;6.67;;;;;-143.57;100.00;65101.44;5116721;27;46066;-43
2023/05/17 03:14:48;;;;;;;;;9.67;6.67;;;;;-143.57;100.00;65101.44;5116756;27;45464;-43
2023/05/17 03:17:13;;;;;;;;;11.67;11.33;;;;;-143.57;100.00;65101.44;5117297;27;45377;-43
2023/05/17 03:19:39;;;;;;;;;7.33;7.33;;;;;-143.57;100.00;65101.44;5117090;27;45393;-47
2023/05/17 03:22:05;;;;;;;;;13.00;8.67;;;;;-143.57;100.00;65101.44;5116707;27;47142;-45
2023/05/17 03:24:30;;;;;;;;;17.67;10.33;;;;;-143.57;100.00;65101.44;5116088;27;45377;-46
2023/05/17 03:26:55;;;;;;;;;10.33;8.67;;;;;-143.57;100.00;65101.44;5116843;27;45335;-42
2023/05/17 03:29:21;;;;;;;;;15.33;14.00;;;;;-143.57;100.00;65101.44;5116997;27;45467;-40
2023/05/17 03:31:46;;;;;;;;;18.00;12.33;;;;;-143.57;100.00;65101.44;5116257;27;52033;-42
2023/05/17 03:34:11;;;;;;;;;19.67;12.00;;;;;-143.57;100.00;65101.44;5116585;27;45271;-45
2023/05/17 03:36:41;;;;;;;;;15.00;10.33;;;;;-143.57;100.00;65101.44;5118871;27;45428;-49
2023/05/17 03:39:06;;;;;;;;;13.67;12.00;;;;;-143.57;100.00;65101.44;5120524;27;45274;-47
2023/05/17 03:41:32;;;;;;;;;13.33;13.33;;;;;-143.57;100.00;65101.44;5119556;27;45193;-45
2023/05/17 03:43:57;;;;;;;;;18.00;12.33;;;;;-143.57;100.00;65101.44;5119967;27;45339;-46
2023/05/17 03:46:22;;;;;;;;;17.00;13.00;;;;;-143.57;100.00;65101.44;5120152;27;45502;-45
2023/05/17 03:48:48;;;;;;;;;22.67;17.00;;;;;-143.57;100.00;65101.44;5120097;27;45508;-43
2023/05/17 03:51:14;;;;;;;;;18.33;14.00;;;;;-143.57;100.00;65101.44;5119916;27;45298;-41
2023/05/17 03:53:42;;;;;;;;;21.00;12.67;;;;;-143.57;100.00;65101.44;5120008;27;45361;-43
2023/05/17 03:56:10;;;;;;;;;19.33;13.33;;;;;-143.57;100.00;65101.44;5119757;27;45331;-43
2023/05/17 03:58:36;;;;;;;;;19.00;13.33;;;;;-143.57;100.00;65101.44;5120237;27;45451;-42
2023/05/17 04:01:02;;;;;;;;;20.50;15.00;;;;;-143.57;100.00;65101.44;5119631;27;46895;-45
2023/05/17 04:03:28;;;;;;;;;17.33;16.33;;;;;-143.57;100.00;65101.44;5119893;27;45400;-44
2023/05/17 04:06:00;;;;;;;;;20.33;16.33;;;;;-143.57;100.00;65101.44;5119919;27;45909;-45
2023/05/17 04:08:25;;;;;;;;;21.33;19.33;;;;;-143.57;100.00;65101.44;5119979;27;45208;-48
2023/05/17 04:10:51;;;;;;;;;21.33;14.67;;;;;-143.57;100.00;65101.44;5119156;27;45991;-45
2023/05/17 04:13:16;;;;;;;;;23.00;17.33;;;;;-143.57;100.00;65101.44;5119079;27;45402;-43
2023/05/17 04:15:41;;;;;;;;;23.00;20.67;;;;;-143.57;100.00;65101.44;5119659;27;45311;-44
2023/05/17 04:18:06;;;;;;;;;25.67;22.00;;;;;-143.57;100.00;65101.44;5119390;27;45486;-41
2023/05/17 04:20:32;;;;;;;;;22.00;18.00;;;;;-143.57;100.00;65101.44;5119356;27;45241;-48
2023/05/17 04:22:58;;;;;;;;;23.67;20.00;;;;;-143.57;100.00;65101.44;5119237;27;49319;-41
2023/05/17 04:25:24;;;;;;;;;20.33;17.00;;;;;-143.57;100.00;65101.44;5119396;27;45400;-46
2023/05/17 04:27:49;;;;;;;;;35.00;26.67;;;;;-143.57;100.00;65101.44;5119154;27;45356;-48
2023/05/17 04:30:15;;;;;;;;;68.00;48.00;;;;;-143.57;100.00;65101.44;5119217;27;45986;-44
2023/05/17 04:32:41;;;;;;;;;64.50;45.25;;;;;-143.57;100.00;65101.44;5119019;27;45358;-47
2023/05/17 04:35:07;;;;;;;;;39.67;29.33;;;;;-143.57;100.00;65101.44;5119067;27;45391;-46
2023/05/17 04:37:33;;;;;;;;;30.00;22.67;;;;;-143.57;100.00;65101.44;5118742;27;45552;-45
2023/05/17 04:39:58;;;;;;;;;25.33;18.33;;;;;-143.57;100.00;65101.44;5118867;27;46308;-48
2023/05/17 04:42:23;;;;;;;;;29.67;22.67;;;;;-143.57;100.00;65101.44;5118809;27;45401;-44
2023/05/17 04:44:49;;;;;;;;;20.67;19.33;;;;;-143.57;100.00;65101.44;5119086;27;46264;-47
2023/05/17 04:47:14;;;;;;;;;23.67;17.67;;;;;-143.57;100.00;65101.44;5118165;27;45394;-42
2023/05/17 04:49:40;;;;;;;;;18.33;17.67;;;;;-143.57;100.00;65101.44;5119134;27;46149;-49
2023/05/17 04:52:06;;;;;;;;;21.33;17.33;;;;;-143.57;100.00;65101.44;5118509;27;45528;-44
2023/05/17 04:54:31;;;;;;;;;24.00;16.00;;;;;-143.57;100.00;65101.44;5119139;27;45515;-46
2023/05/17 04:56:56;;;;;;;;;21.00;18.33;;;;;-143.57;100.00;65101.44;5119381;27;45164;-42
2023/05/17 04:59:21;;;;;;;;;25.33;20.67;;;;;-143.57;100.00;65101.44;5118923;27;45991;-46
2023/05/17 05:01:47;;;;;;;;;27.00;16.67;;;;;-143.57;100.00;65101.44;5118838;27;45433;-47
2023/05/17 05:04:12;;;;;;;;;20.00;17.67;;;;;-143.57;100.00;65101.44;5099818;27;45337;-45
2023/05/17 05:06:38;;;;;;;;;20.00;17.33;;;;;-143.57;100.00;65101.44;5119275;27;45510;-50
2023/05/17 05:09:03;;;;;;;;;26.33;19.33;;;;;-143.57;100.00;65101.44;5118620;27;46031;-44
2023/05/17 05:11:30;;;;;;;;;25.00;20.00;;;;;-143.57;100.00;65101.44;5100139;27;45340;-45
2023/05/17 05:13:55;;;;;;;;;24.67;18.33;;;;;-143.57;100.00;65101.44;5118745;27;45397;-44
2023/05/17 05:16:21;;;;;;;;;17.33;15.67;;;;;-143.57;100.00;65101.44;5118959;27;45400;-47
2023/05/17 05:18:46;;;;;;;;;26.67;21.00;;;;;-143.57;100.00;65101.44;5118594;27;47468;-44
2023/05/17 05:21:11;;;;;;;;;21.67;17.33;;;;;-143.57;100.00;65101.44;5118453;27;45760;-45
2023/05/17 05:23:36;;;;;;;;;26.00;19.33;;;;;-143.57;100.00;65101.44;5118648;27;45410;-48
2023/05/17 05:26:03;;;;;;;;;26.00;18.00;;;;;-143.57;100.00;65101.44;5118345;27;45545;-46
2023/05/17 05:28:29;;;;;;;;;22.00;17.00;;;;;-143.57;100.00;65101.44;5117877;27;45461;-46
2023/05/17 05:31:00;;;;;;;;;23.33;18.33;;;;;-143.57;100.00;65101.44;5118102;27;45296;-46
2023/05/17 05:33:26;;;;;;;;;21.67;21.00;;;;;-143.57;100.00;65101.44;5118425;27;45288;-47
2023/05/17 05:35:51;;;;;;;;;26.33;17.67;;;;;-143.57;100.00;65101.44;5118296;27;45374;-47
2023/05/17 05:38:17;;;;;;;;;22.00;18.67;;;;;-143.57;100.00;65101.44;5118210;27;47062;-44
2023/05/17 05:40:44;;;;;;;;;25.67;23.33;;;;;-143.57;100.00;65101.44;5118062;27;45267;-47
2023/05/17 05:43:09;;;;;;;;;27.33;15.67;;;;;-143.57;100.00;65101.44;5118001;27;45227;-45
2023/05/17 05:45:35;;;;;;;;;33.33;21.67;;;;;-143.57;100.00;65101.44;5118411;27;45393;-46
2023/05/17 05:48:00;;;;;;;;;25.33;17.00;;;;;-143.57;100.00;65101.44;5117788;27;46951;-44
2023/05/17 05:50:25;;;;;;;;;19.33;18.67;;;;;-143.57;100.00;65101.44;5118145;27;45385;-44
2023/05/17 05:52:51;;;;;;;;;20.00;17.67;;;;;-143.57;100.00;65101.44;5118432;27;45213;-47
2023/05/17 05:55:16;;;;;;;;;20.67;15.00;;;;;-143.57;100.00;65101.44;5118552;27;45337;-46
2023/05/17 05:57:41;;;;;;;;;24.67;17.00;;;;;-143.57;100.00;65101.44;5117742;27;47168;-45
2023/05/17 06:00:10;;;;;;;;;27.00;24.67;;;;;-143.57;100.00;65101.44;5099125;27;45350;-47
2023/05/17 06:02:36;;;;;;;;;23.67;19.33;;;;;-143.57;100.00;65101.44;5118293;27;45288;-46
2023/05/17 06:05:02;;;;;;;;;25.00;20.00;;;;;-143.57;100.00;65101.44;5118192;27;45490;-47
2023/05/17 06:07:27;;;;;;;;;23.67;20.00;;;;;-143.57;100.00;65101.44;5117980;27;46971;-47
2023/05/17 06:09:53;;;;;;;;;26.33;22.33;;;;;-143.57;100.00;65101.44;5117804;27;45394;-48
2023/05/17 06:12:19;;;;;;;;;24.33;18.33;;;;;-143.57;100.00;65101.44;5117878;27;45872;-42
2023/05/17 06:14:44;;;;;;;;;26.00;20.33;;;;;-143.57;100.00;65101.44;5118021;27;45339;-43
2023/05/17 06:17:10;;;;;;;;;21.00;19.00;;;;;-143.57;100.00;65101.44;5117288;27;46172;-47
2023/05/17 06:19:35;;;;;;;;;28.33;17.67;;;;;-143.57;100.00;65101.44;5114528;27;45467;-44
2023/05/17 06:22:00;;;;;;;;;18.33;13.00;;;;;-143.57;100.00;65101.44;5105805;27;45436;-53
2023/05/17 06:24:26;;;;;;;;;22.00;17.33;;;;;-143.57;100.00;65101.44;5114933;27;45441;-43
2023/05/17 06:26:51;;;;;;;;;26.00;19.00;;;;;-143.57;100.00;65101.44;5115002;27;46203;-44
2023/05/17 06:29:16;;;;;;;;;24.67;17.33;;;;;-143.57;100.00;65101.44;5096278;27;45563;-42
2023/05/17 06:31:42;;;;;;;;;26.00;18.00;;;;;-143.57;100.00;65101.44;5114557;27;45514;-40
2023/05/17 06:34:07;;;;;;;;;18.33;14.33;;;;;-143.57;100.00;65101.44;5111289;27;45479;-42
2023/05/17 06:36:33;;;;;;;;;19.00;15.00;;;;;-143.57;100.00;65101.44;5114866;27;46170;-46
2023/05/17 06:38:59;;;;;;;;;18.67;12.67;;;;;-143.57;100.00;65101.44;5114977;27;45441;-41
2023/05/17 06:41:24;;;;;;;;;17.67;12.67;;;;;-143.57;100.00;65101.44;5114599;27;45492;-41
2023/05/17 06:43:49;;;;;;;;;21.67;16.33;;;;;-143.57;100.00;65101.44;5112867;27;45463;-42
2023/05/17 06:46:15;;;;;;;;;21.33;18.00;;;;;-143.57;100.00;65101.44;5112608;27;46084;-42
2023/05/17 06:48:40;;;;;;;;;17.00;11.33;;;;;-143.57;100.00;65101.44;5114596;27;45489;-41
2023/05/17 06:51:05;;;;;;;;;16.00;12.00;;;;;-143.57;100.00;65101.44;5114929;27;45469;-43
2023/05/17 06:53:31;;;;;;;;;16.67;13.67;;;;;-143.57;100.00;65101.44;5114893;27;45425;-42
2023/05/17 06:55:56;;;;;;;;;17.67;12.33;;;;;-143.57;100.00;65101.44;5114605;27;45614;-41
2023/05/17 06:58:21;;;;;;;;;14.67;13.33;;;;;-143.57;100.00;65101.44;5114244;27;45432;-39
2023/05/17 07:00:47;;;;;;;;;16.67;10.33;;;;;-143.57;100.00;65101.44;5114444;27;45444;-42
2023/05/17 07:03:12;;;;;;;;;11.33;10.67;;;;;-143.57;100.00;65101.44;5096196;27;45840;-43
2023/05/17 07:05:37;;;;;;;;;9.00;9.00;;;;;-143.57;100.00;65101.44;5114085;27;45976;-43
2023/05/17 07:08:03;;;;;;;;;11.33;7.67;;;;;-143.57;100.00;65101.44;5114860;27;48443;-44
2023/05/17 07:10:29;;;;;;;;;7.67;7.00;;;;;-143.57;100.00;65101.44;5114258;27;45503;-48
2023/05/17 07:12:54;;;;;;;;;8.25;6.00;;;;;-143.57;100.00;65101.44;5117651;27;45325;-41
2023/05/17 07:15:20;;;;;;;;;11.50;8.50;;;;;-143.57;100.00;65101.44;5117717;27;45232;-45
2023/05/17 07:17:45;;;;;;;;;7.25;7.25;;;;;-143.57;100.00;65101.44;5117620;27;45774;-40
2023/05/17 07:20:11;;;;;;;;;6.25;6.00;;;;;-143.57;100.00;65101.44;5117127;27;45386;-42
2023/05/17 07:22:37;;;;;;;;;16.50;13.50;;;;;-143.57;100.00;65101.44;5117974;27;45487;-46
2023/05/17 07:25:03;;;;;;;;;11.75;8.50;;;;;-143.57;100.00;65101.44;5117950;27;46174;-45
2023/05/17 07:27:28;;;;;;;;;12.00;7.20;;;;;-143.57;100.00;65101.44;5117224;27;45453;-45
2023/05/17 07:29:54;;;;;;;;;9.50;8.50;;;;;-143.57;100.00;65101.44;5117704;27;45409;-41
2023/05/17 07:32:19;;;;;;;;;7.75;6.25;;;;;-143.57;100.00;65101.44;5117877;27;45413;-46
2023/05/17 07:34:45;;;;;;;;;6.50;6.50;;;;;-143.57;100.00;65101.44;5117159;27;46824;-53
2023/05/17 07:37:10;;;;;;;;;11.75;5.00;;;;;-143.57;100.00;65101.44;5117336;27;45405;-42
2023/05/17 07:39:35;;;;;;;;;8.75;8.75;;;;;-143.57;100.00;65101.44;5117635;27;45421;-42
2023/05/17 07:42:01;;;;;;;;;8.50;6.00;;;;;-143.57;100.00;65101.44;5113466;27;46689;-44
2023/05/17 07:44:26;;;;;;;;;9.00;7.00;;;;;-143.57;100.00;65101.44;5119733;27;47832;-44
2023/05/17 07:46:51;;;;;;;;;13.00;5.00;;;;;-143.57;100.00;65101.44;5120029;27;45310;-42
2023/05/17 07:49:17;;;;;;;;;9.25;7.25;;;;;-143.57;100.00;65101.44;5119693;27;45503;-43
2023/05/17 07:51:42;;;;;;;;;8.00;7.00;;;;;-143.57;100.00;65101.44;5120082;27;45408;-41
2023/05/17 07:54:08;;;;;;;;;7.25;6.75;;;;;-143.57;100.00;65101.44;5119460;27;45469;-51
2023/05/17 07:56:33;;;;;;;;;7.00;6.00;;;;;-143.57;100.00;65101.44;5119764;27;45322;-46
2023/05/17 07:58:59;;;;;;;;;6.75;6.75;;;;;-143.57;100.00;65101.44;5119808;27;45878;-42
2023/05/17 08:01:25;;;;;;;;;9.25;6.25;;;;;-143.57;100.00;65101.44;5119775;27;45377;-44
2023/05/17 08:03:51;;;;;;;;;9.20;6.60;;;;;-143.57;100.00;65101.44;5119439;27;46303;-42
2023/05/17 08:06:17;;;;;;;;;8.75;6.50;;;;;-143.57;100.00;65101.44;5119794;27;45852;-40
2023/05/17 08:08:43;;;;;;;;;6.80;6.00;;;;;-143.57;100.00;65101.44;5119801;27;45355;-40
2023/05/17 08:11:09;;;;;;;;;8.25;6.50;;;;;-143.57;100.00;65101.44;5115937;27;45436;-47
2023/05/17 08:13:35;;;;;;;;;10.40;7.80;;;;;-143.57;100.00;65101.44;5119194;27;46322;-55
2023/05/17 08:16:02;;;;;;;;;9.25;9.25;;;;;-143.57;100.00;65101.44;5100997;27;45358;-41
2023/05/17 08:18:29;;;;;;;;;10.60;7.20;;;;;-143.57;100.00;65101.44;5100684;27;45456;-43
2023/05/17 08:20:55;;;;;;;;;9.60;7.00;;;;;-143.57;100.00;65101.44;5119679;27;45427;-41
2023/05/17 08:23:20;;;;;;;;;10.40;7.00;;;;;-143.57;100.00;65101.44;5119147;27;46292;-57
2023/05/17 08:25:46;;;;;;;;;11.00;7.00;;;;;-143.57;100.00;65101.44;5118727;27;45415;-44
2023/05/17 08:28:11;;;;;;;;;7.75;7.00;;;;;-143.57;100.00;65101.44;5119449;27;45395;-44
2023/05/17 08:30:36;;;;;;;;;11.25;7.00;;;;;-143.57;100.00;65101.44;5119480;27;45308;-49
2023/05/17 08:33:02;;;;;;;;;8.00;8.00;;;;;-143.57;100.00;65101.44;5118772;27;46226;-49
2023/05/17 08:35:27;;;;;;;;;6.25;5.50;;;;;-143.57;100.00;65101.44;5118809;27;45351;-44
2023/05/17 08:37:52;;;;;;;;;6.00;5.75;;;;;-143.57;100.00;65101.44;5118047;27;45336;-44
2023/05/17 08:40:20;;;;;;;;;6.25;4.50;;;;;-143.57;100.00;65101.44;5119389;27;45333;-51
2023/05/17 08:42:46;;;;;;;;;6.20;4.80;;;;;-143.57;100.00;65101.44;5118960;27;46275;-42
2023/05/17 08:45:12;;;;;;;;;7.50;6.00;;;;;-143.57;100.00;65101.44;5118576;27;45441;-42
2023/05/17 08:47:41;;;;;;;;;5.20;5.20;;;;;-143.57;100.00;65101.44;5119247;27;45318;-43
2023/05/17 08:50:06;;;;;;;;;5.60;4.60;;;;;-143.57;100.00;65101.44;5119277;27;45468;-42
2023/05/17 08:52:32;;;;;;;;;7.75;5.25;;;;;-143.57;100.00;65101.44;5118062;27;45495;-42
2023/05/17 08:55:04;;;;;;;;;8.75;5.75;;;;;-143.57;100.00;65101.44;5118750;27;45451;-40
2023/05/17 08:57:30;;;;;;;;;7.80;5.00;;;;;-143.57;100.00;65101.44;5100168;27;45283;-43
2023/05/17 08:59:59;;;;;;;;;3.40;3.40;;;;;-143.57;100.00;65101.44;5119104;27;45377;-53
2023/05/17 09:02:25;;;;;;;;;4.20;2.40;;;;;-143.57;100.00;65101.44;5117149;27;46156;-43
2023/05/17 09:04:54;;;;;;;;;6.80;5.60;;;;;-143.57;100.00;65101.44;5118435;27;45448;-42
2023/05/17 09:07:22;;;;;;;;;3.60;3.60;;;;;-143.57;100.00;65101.44;5118529;27;45319;-48
2023/05/17 09:09:52;;;;;;;;;5.60;5.60;;;;;-143.57;100.00;65101.44;5118979;27;45516;-40
2023/05/17 09:12:18;;;;;;;;;5.00;3.00;;;;;-143.57;100.00;65101.44;5118405;27;46364;-46
2023/05/17 09:14:43;;;;;;;;;4.20;3.60;;;;;-143.57;100.00;65101.44;5118438;27;45274;-42
2023/05/17 09:17:15;;;;;;;;;4.00;4.00;;;;;-143.57;100.00;65101.44;5118305;27;45268;-51
2023/05/17 09:19:45;;;;;;;;;7.40;5.60;;;;;-143.57;100.00;65101.44;5118959;27;45600;-44
2023/05/17 09:22:16;;;;;;;;;5.20;4.80;;;;;-143.57;100.00;65101.44;5118305;27;46190;-42
2023/05/17 09:24:42;;;;;;;;;6.00;4.40;;;;;-143.57;100.00;65101.44;5118462;27;45333;-42
2023/05/17 09:27:08;;;;;;;;;4.25;3.00;;;;;-143.57;100.00;65101.44;5118285;27;45359;-42
2023/05/17 09:29:34;;;;;;;;;9.60;5.00;;;;;-143.57;100.00;65101.44;5118328;27;45454;-42
2023/05/17 09:32:12;;;;;;;;;5.60;4.80;;;;;-143.57;100.00;65101.44;5118232;27;45409;-49
2023/05/17 09:34:42;;;;;;;;;5.20;5.20;;;;;-143.57;100.00;65101.44;5117783;27;45429;-47
2023/05/17 09:37:15;;;;;;;;;3.80;3.80;;;;;-143.57;100.00;65101.44;5118249;27;45400;-53
2023/05/17 09:39:45;;;;;;;;;5.80;4.00;;;;;-143.57;100.00;65101.44;5100405;27;45253;-48
2023/05/17 09:42:12;;;;;;;;;5.00;4.20;;;;;-143.57;100.00;65101.44;5118019;27;47525;-44
2023/05/17 09:44:52;;;;;;;;;7.20;5.20;;;;;-143.57;100.00;65101.44;5099337;27;45408;-40
2023/05/17 09:47:24;;;;;;;;;5.20;5.20;;;;;-143.57;100.00;65101.44;5117659;27;45477;-43
2023/05/17 09:49:52;;;;;;;;;5.00;2.60;;;;;-143.57;100.00;65101.44;5118161;27;45306;-44
2023/05/17 09:52:19;;;;;;;;;4.20;3.40;;;;;-143.57;100.00;65101.44;5099489;27;47115;-50
2023/05/17 09:54:55;;;;;;;;;5.80;4.60;;;;;-143.57;100.00;65101.44;5117824;27;45299;-50
2023/05/17 09:57:21;;;;;;;;;4.00;4.00;;;;;-143.57;100.00;65101.44;5117846;27;45310;-51
2023/05/17 09:59:47;;;;;;;;;4.80;4.80;;;;;-143.57;100.00;65101.44;5117890;27;45305;-45
2023/05/17 10:02:26;;;;;;;;;8.20;7.60;;;;;-143.57;100.00;65101.44;5113986;27;45992;-45
2023/05/17 10:04:55;;;;;;;;;4.00;4.00;;;;;-143.57;100.00;65101.44;5117719;27;45483;-41
2023/05/17 10:07:24;;;;;;;;;13.00;7.60;;;;;-143.57;100.00;65101.44;5117762;27;45371;-41
2023/05/17 10:09:52;;;;;;;;;5.60;3.80;;;;;-143.57;100.00;65101.44;5117604;27;45587;-41
2023/05/17 10:12:21;;;;;;;;;3.40;3.40;;;;;-143.57;100.00;65101.44;5117465;27;46043;-42
2023/05/17 10:14:47;;;;;;;;;3.60;2.20;;;;;-143.57;100.00;65101.44;5117697;27;45263;-42
2023/05/17 10:17:13;;;;;;;;;7.25;6.25;;;;;-143.57;100.00;65101.44;5116893;27;45220;-47
2023/05/17 10:19:39;;;;;;;;;3.60;3.60;;;;;-143.57;100.00;65101.44;5117823;27;45315;-44
2023/05/17 10:22:05;;;;;;;;;5.50;4.00;;;;;-143.57;100.00;65101.44;5117570;27;45367;-56
2023/05/17 10:24:31;;;;;;;;;3.60;3.60;;;;;-143.57;100.00;65101.44;5117606;27;45327;-50
2023/05/17 10:26:58;;;;;;;;;2.75;2.75;;;;;-143.57;100.00;65101.44;5117869;27;45414;-41
2023/05/17 10:29:24;;;;;;;;;5.40;3.40;;;;;-143.57;100.00;65101.44;5117502;27;45464;-49
2023/05/17 10:31:50;;;;;;;;;4.40;4.40;;;;;-143.57;100.00;65101.44;5117124;27;46189;-50
2023/05/17 10:34:17;;;;;;;;;5.00;5.00;;;;;-143.57;100.00;65101.44;5117236;27;45302;-50
2023/05/17 10:36:44;;;;;;;;;3.40;3.40;;;;;-143.57;100.00;65101.44;5117058;27;45464;-42
2023/05/17 10:39:10;;;;;;;;;4.00;3.00;;;;;-143.57;100.00;65101.44;5117303;27;45512;-53
2023/05/17 10:41:38;;;;;;;;;2.20;2.20;;;;;-143.57;100.00;65101.44;5117343;27;46235;-46
2023/05/17 10:44:07;;;;;;;;;3.60;3.60;;;;;-143.57;100.00;65101.44;5117062;27;45582;-43
2023/05/17 10:46:33;;;;;;;;;4.40;2.20;;;;;-143.57;100.00;65101.44;5119366;27;45535;-50
2023/05/17 10:48:59;;;;;;;;;5.60;3.00;;;;;-143.57;100.00;65101.44;5121095;27;45490;-53
2023/05/17 10:51:30;;;;;;;;;3.80;3.40;;;;;-143.57;100.00;65101.44;5101686;27;46611;-54
2023/05/17 10:54:06;;;;;;;;;4.20;2.60;;;;;-143.57;100.00;65101.44;5120687;27;45329;-56
2023/05/17 10:56:33;;;;;;;;;4.40;4.40;;;;;-143.57;100.00;65101.44;5120831;27;45236;-56
2023/05/17 10:59:15;;;;;;;;;3.20;2.00;;;;;-143.57;100.00;65101.44;5120842;27;45247;-56
2023/05/17 11:01:53;;;;;;;;;2.00;2.00;;;;;-143.57;100.00;65101.44;5120387;27;46222;-53